createdAt,value
2023-05-19T03:57:18.930Z,14.16
2023-05-19T04:00:22.922Z,14.16
2023-05-19T04:03:26.703Z,13.75
2023-05-19T04:06:28.954Z,13.76
2023-05-19T04:09:35.409Z,13.80
2023-05-19T04:12:37.540Z,13.92
2023-05-19T04:15:40.986Z,13.95
2023-05-19T04:18:46.173Z,13.93
2023-05-19T04:21:48.758Z,13.96
2023-05-19T04:24:52.278Z,14.05
2023-05-19T04:27:57.684Z,14.06
2023-05-19T04:31:00.336Z,14.17
2023-05-19T04:34:02.890Z,14.15
2023-05-19T04:37:07.049Z,14.20
2023-05-19T04:40:11.129Z,14.20
2023-05-19T04:43:13.500Z,14.38
2023-05-19T04:46:16.218Z,14.42
2023-05-19T04:49:19.391Z,14.32
2023-05-19T04:52:22.528Z,14.34
2023-05-19T04:55:26.046Z,14.34
2023-05-19T04:58:28.561Z,14.41
2023-05-19T05:01:32.912Z,14.34
2023-05-19T05:04:36.227Z,14.32
2023-05-19T05:07:39.314Z,14.36
2023-05-19T05:10:42.230Z,14.70
2023-05-19T05:13:44.781Z,14.89
2023-05-19T05:16:47.861Z,14.99
2023-05-19T05:19:51.291Z,14.89
2023-05-19T05:22:54.103Z,14.92
2023-05-19T05:25:56.804Z,14.89
2023-05-19T05:28:59.467Z,14.84
2023-05-19T05:32:01.948Z,15.01
2023-05-19T05:35:05.183Z,14.98
2023-05-19T05:38:08.118Z,15.14
2023-05-19T05:41:11.373Z,15.17
2023-05-19T05:44:13.764Z,15.22
2023-05-19T05:47:16.865Z,15.40
2023-05-19T05:50:20.342Z,15.64
2023-05-19T05:53:25.140Z,15.61
2023-05-19T05:56:28.609Z,15.64
2023-05-19T05:59:31.108Z,15.73
2023-05-19T06:02:33.372Z,15.70
2023-05-19T06:05:36.166Z,15.60
2023-05-19T06:08:38.491Z,15.55
2023-05-19T06:11:41.512Z,15.62
2023-05-19T06:14:44.908Z,15.69
2023-05-19T06:17:48.568Z,15.78
2023-05-19T06:20:50.959Z,15.78
2023-05-19T06:23:53.541Z,15.73
2023-05-19T06:26:55.802Z,15.79
2023-05-19T06:29:58.427Z,15.90
2023-05-19T06:33:00.858Z,15.91
2023-05-19T06:36:03.648Z,16.03
2023-05-19T06:39:06.374Z,15.98
2023-05-19T06:42:08.905Z,16.06
2023-05-19T06:45:15.114Z,16.13
2023-05-19T06:48:17.765Z,16.20
2023-05-19T06:51:21.789Z,16.28
2023-05-19T06:54:25.493Z,16.36
2023-05-19T06:57:27.891Z,16.37
2023-05-19T07:00:32.398Z,16.28
2023-05-19T07:03:36.316Z,16.35
2023-05-19T07:06:39.342Z,16.44
2023-05-19T07:09:41.732Z,16.45
2023-05-19T07:12:44.310Z,16.58
2023-05-19T07:15:49.035Z,16.83
2023-05-19T07:18:52.285Z,16.67
2023-05-19T07:21:55.467Z,16.73
2023-05-19T07:24:58.107Z,16.89
2023-05-19T07:28:00.610Z,17.19
2023-05-19T07:31:03.064Z,17.20
2023-05-19T07:34:05.503Z,17.25
2023-05-19T07:37:08.251Z,17.40
2023-05-19T07:40:11.775Z,17.29
2023-05-19T07:43:14.738Z,17.31
2023-05-19T07:46:17.109Z,17.36
2023-05-19T07:49:19.622Z,17.58
2023-05-19T07:52:22.101Z,17.61
2023-05-19T07:55:24.684Z,17.62
2023-05-19T07:58:26.930Z,17.73
2023-05-19T08:01:30.346Z,17.78
2023-05-19T08:04:32.933Z,17.92
2023-05-19T08:07:35.335Z,18.14
2023-05-19T08:10:37.860Z,18.10
2023-05-19T08:13:40.066Z,18.09
2023-05-19T08:16:43.857Z,18.16
2023-05-19T08:19:46.339Z,18.27
2023-05-19T08:22:48.933Z,18.42
2023-05-19T08:25:51.250Z,18.53
2023-05-19T08:28:53.876Z,18.63
2023-05-19T08:31:56.241Z,18.67
2023-05-19T08:34:58.692Z,18.56
2023-05-19T08:38:01.029Z,18.58
2023-05-19T08:41:03.839Z,18.80
2023-05-19T08:44:06.163Z,18.83
2023-05-19T08:47:13.313Z,18.72
2023-05-19T08:50:30.714Z,18.57
2023-05-19T08:53:37.850Z,18.60
2023-05-19T08:56:40.370Z,18.73
2023-05-19T08:59:43.897Z,18.69
2023-05-19T09:02:59.812Z,18.70
2023-05-19T09:06:08.965Z,18.74
2023-05-19T09:09:23.169Z,18.86
2023-05-19T09:12:26.860Z,18.87
2023-05-19T09:15:29.040Z,18.73
2023-05-19T09:18:31.825Z,18.60
2023-05-19T09:21:34.024Z,18.58
2023-05-19T09:24:37.861Z,18.46
2023-05-19T09:27:40.000Z,18.53
2023-05-19T09:30:42.460Z,18.46
2023-05-19T09:33:46.055Z,18.47
2023-05-19T09:36:53.494Z,18.45
2023-05-19T09:39:56.546Z,18.38
2023-05-19T09:42:58.963Z,18.35
2023-05-19T09:46:04.071Z,18.45
2023-05-19T09:49:09.800Z,18.42
2023-05-19T09:52:16.276Z,18.43
2023-05-19T09:55:23.004Z,18.46
2023-05-19T09:58:26.325Z,18.48
2023-05-19T10:01:32.849Z,18.54
2023-05-19T10:04:36.265Z,18.68
2023-05-19T10:07:40.407Z,18.80
2023-05-19T10:10:45.450Z,18.80
2023-05-19T10:13:50.936Z,18.82
2023-05-19T10:16:55.375Z,18.96
2023-05-19T10:19:59.326Z,19.02
2023-05-19T10:23:03.054Z,19.00
2023-05-19T10:26:06.872Z,19.06
2023-05-19T10:29:10.627Z,19.08
2023-05-19T10:32:22.674Z,19.10
2023-05-19T10:35:27.905Z,19.07
2023-05-19T10:38:48.217Z,19.07
2023-05-19T10:42:13.165Z,19.24
2023-05-19T10:45:21.432Z,19.36
2023-05-19T10:48:24.322Z,19.33
2023-05-19T10:51:33.987Z,19.31
2023-05-19T10:54:48.114Z,19.41
2023-05-19T10:58:00.379Z,19.45
2023-05-19T11:01:02.959Z,19.55
2023-05-19T11:04:13.852Z,19.52
2023-05-19T11:07:21.690Z,19.48
2023-05-19T11:10:24.657Z,19.48
2023-05-19T11:13:28.428Z,19.59
2023-05-19T11:16:34.896Z,19.65
2023-05-19T11:19:37.643Z,19.68
2023-05-19T11:22:40.010Z,19.82
2023-05-19T11:25:47.603Z,19.87
2023-05-19T11:28:50.176Z,19.86
2023-05-19T11:31:52.812Z,19.86
2023-05-19T11:34:56.138Z,19.92
2023-05-19T11:37:59.386Z,19.96
2023-05-19T11:41:03.192Z,19.97
2023-05-19T11:44:10.050Z,19.92
2023-05-19T11:47:13.681Z,19.89
2023-05-19T11:50:16.575Z,20.03
2023-05-19T11:53:21.560Z,19.87
2023-05-19T11:56:24.044Z,19.80
2023-05-19T11:59:34.946Z,19.77
2023-05-19T12:02:38.461Z,19.74
2023-05-19T12:05:46.759Z,19.70
2023-05-19T12:08:52.028Z,19.71
2023-05-19T12:11:55.163Z,19.83
2023-05-19T12:14:57.360Z,19.99
2023-05-19T12:18:03.214Z,20.17
2023-05-19T12:21:05.828Z,20.24
2023-05-19T12:24:08.892Z,20.26
2023-05-19T12:27:14.924Z,20.22
2023-05-19T12:30:17.374Z,20.14
2023-05-19T12:33:19.765Z,20.21
2023-05-19T12:36:25.170Z,20.32
2023-05-19T12:39:27.449Z,20.27
2023-05-19T12:42:34.982Z,20.27
2023-05-19T12:45:38.537Z,20.29
2023-05-19T12:48:45.556Z,20.37
2023-05-19T12:51:54.395Z,20.52
2023-05-19T12:55:07.661Z,20.59
2023-05-19T12:58:13.462Z,20.58
2023-05-19T13:01:17.911Z,20.57
2023-05-19T13:04:20.228Z,20.62
2023-05-19T13:07:22.736Z,20.67
2023-05-19T13:10:29.338Z,20.57
2023-05-19T13:13:32.331Z,20.45
2023-05-19T13:16:34.479Z,20.54
2023-05-19T13:19:36.998Z,20.57
2023-05-19T13:22:39.232Z,20.61
2023-05-19T13:25:42.300Z,20.75
2023-05-19T13:28:44.655Z,20.85
2023-05-19T13:31:47.063Z,20.84
2023-05-19T13:34:49.290Z,20.93
2023-05-19T13:37:51.771Z,21.00
2023-05-19T13:40:54.644Z,21.13
2023-05-19T13:44:01.150Z,21.06
2023-05-19T13:47:03.335Z,21.05
2023-05-19T13:50:06.472Z,21.05
2023-05-19T13:53:08.807Z,21.03
2023-05-19T13:56:11.395Z,21.00
2023-05-19T13:59:13.585Z,20.85
2023-05-19T14:02:16.232Z,20.75
2023-05-19T14:05:18.708Z,20.79
2023-05-19T14:08:20.943Z,20.79
2023-05-19T14:11:23.447Z,20.81
2023-05-19T14:14:25.817Z,20.96
2023-05-19T14:17:28.597Z,20.95
2023-05-19T14:20:31.377Z,21.02
2023-05-19T14:23:34.316Z,21.12
2023-05-19T14:26:36.575Z,21.23
2023-05-19T14:29:39.281Z,21.41
2023-05-19T14:32:41.581Z,21.44
2023-05-19T14:35:44.066Z,21.38
2023-05-19T14:38:46.390Z,21.44
2023-05-19T14:41:50.942Z,21.28
2023-05-19T14:44:53.160Z,21.20
2023-05-19T14:47:55.854Z,21.19
2023-05-19T14:50:58.057Z,21.21
2023-05-19T14:54:02.085Z,21.30
2023-05-19T14:57:04.551Z,21.29
2023-05-19T15:00:10.054Z,21.31
2023-05-19T15:03:12.272Z,21.23
2023-05-19T15:06:14.781Z,21.19
2023-05-19T15:09:16.952Z,21.18
2023-05-19T15:12:19.493Z,21.15
2023-05-19T15:15:21.706Z,21.14
2023-05-19T15:18:24.210Z,21.15
2023-05-19T15:21:26.422Z,21.14
2023-05-19T15:24:28.859Z,21.19
